Terminal Aerodrome Forecast
Issued by NWS

Home | Current Version | Previous Version | Text Only | Print | Product List | Glossary On
Versions: 1 2 3 4 5 6 7 8 9 10 11
264
FTUS45 KFGZ 052320
TAFPRC
TAF
KPRC 052320Z 0600/0624 03010KT P6SM FEW250
     FM060130 VRB05KT P6SM FEW250=

USA.gov is the U.S. government's official web portal to all federal, state and local government web resources and services.